createdAt,value
2018-10-12T00:00:11.815Z,10.17
2018-10-12T00:02:42.019Z,11.20
2018-10-12T00:05:11.791Z,9.70
2018-10-12T00:07:41.639Z,9.93
2018-10-12T00:10:11.304Z,9.97
2018-10-12T00:12:40.492Z,10.40
2018-10-12T00:15:10.166Z,10.27
2018-10-12T00:17:39.287Z,10.83
2018-10-12T00:20:08.855Z,11.23
2018-10-12T00:22:38.113Z,10.50
2018-10-12T00:25:07.768Z,10.40
2018-10-12T00:27:36.916Z,12.10
2018-10-12T00:30:06.200Z,11.17
2018-10-12T00:32:35.410Z,10.90
2018-10-12T00:35:04.648Z,11.03
2018-10-12T00:37:33.807Z,11.33
2018-10-12T00:40:02.783Z,11.00
2018-10-12T00:42:31.776Z,10.87
2018-10-12T00:45:00.775Z,11.20
2018-10-12T00:47:29.756Z,11.13
2018-10-12T00:49:58.753Z,12.33
2018-10-12T00:52:27.846Z,12.03
2018-10-12T00:54:57.060Z,11.70
2018-10-12T00:57:26.136Z,11.67
2018-10-12T00:59:55.242Z,11.80
2018-10-12T01:02:24.229Z,11.87
2018-10-12T01:04:53.244Z,12.27
2018-10-12T01:07:22.316Z,13.03
2018-10-12T01:09:51.419Z,11.97
2018-10-12T01:12:30.951Z,11.73
2018-10-12T01:15:00.711Z,12.73
2018-10-12T01:17:30.307Z,11.67
2018-10-12T01:19:59.672Z,13.27
2018-10-12T01:22:29.840Z,12.20
2018-10-12T01:25:00.163Z,12.50
2018-10-12T01:27:29.974Z,12.17
2018-10-12T01:29:59.719Z,13.37
2018-10-12T01:32:34.047Z,13.23
2018-10-12T01:35:03.235Z,12.90
2018-10-12T01:37:32.342Z,12.07
2018-10-12T01:40:01.459Z,11.83
2018-10-12T01:42:30.631Z,12.87
2018-10-12T01:44:59.696Z,12.27
2018-10-12T01:47:28.823Z,12.50
2018-10-12T01:49:57.881Z,12.17
2018-10-12T01:52:26.905Z,13.57
2018-10-12T01:54:56.056Z,13.20
2018-10-12T01:57:25.323Z,12.70
2018-10-12T01:59:54.867Z,13.10
2018-10-12T02:02:23.895Z,12.53
2018-10-12T02:04:52.991Z,13.97
2018-10-12T02:07:21.976Z,13.90
2018-10-12T02:09:51.109Z,13.30
2018-10-12T02:12:20.247Z,14.87
2018-10-12T02:14:49.259Z,14.57
2018-10-12T02:17:18.259Z,13.33
2018-10-12T02:19:47.251Z,14.03
2018-10-12T02:22:16.354Z,14.23
2018-10-12T02:24:45.342Z,14.73
2018-10-12T02:27:14.435Z,13.30
2018-10-12T02:29:43.540Z,13.80
2018-10-12T02:32:12.508Z,14.77
2018-10-12T02:34:41.528Z,13.57
2018-10-12T02:37:10.599Z,14.60
2018-10-12T02:39:39.694Z,14.23
2018-10-12T02:42:08.796Z,14.97
2018-10-12T02:44:37.880Z,15.50
2018-10-12T02:47:06.987Z,15.40
2018-10-12T02:49:35.963Z,13.87
2018-10-12T02:52:05.175Z,15.13
2018-10-12T02:54:34.268Z,15.77
2018-10-12T02:57:03.367Z,15.60
2018-10-12T02:59:32.356Z,15.33
2018-10-12T03:02:01.448Z,15.10
2018-10-12T03:04:30.545Z,15.23
2018-10-12T03:06:59.639Z,14.03
2018-10-12T03:09:28.656Z,13.57
2018-10-12T03:11:57.905Z,15.30
2018-10-12T03:14:27.023Z,15.63
2018-10-12T03:16:56.115Z,14.57
2018-10-12T03:19:25.708Z,14.73
2018-10-12T03:21:54.908Z,14.70
2018-10-12T03:24:23.987Z,15.80
2018-10-12T03:26:53.099Z,14.93
2018-10-12T03:29:22.312Z,14.53
2018-10-12T03:31:51.497Z,14.30
2018-10-12T03:34:21.059Z,16.00
2018-10-12T03:36:50.707Z,14.67
2018-10-12T03:39:19.916Z,16.00
2018-10-12T03:41:49.055Z,15.53
2018-10-12T03:44:18.295Z,15.40
2018-10-12T03:46:47.394Z,16.17
2018-10-12T03:49:16.492Z,15.43
2018-10-12T03:51:45.696Z,15.53
2018-10-12T03:54:14.883Z,14.93
2018-10-12T03:56:43.975Z,15.57
2018-10-12T03:59:12.964Z,16.33
2018-10-12T04:01:41.972Z,14.60
2018-10-12T04:04:11.076Z,15.60
2018-10-12T04:06:40.143Z,15.17
2018-10-12T04:09:09.351Z,15.53
2018-10-12T04:11:38.331Z,13.97
2018-10-12T04:14:07.331Z,14.47
2018-10-12T04:16:36.340Z,15.17
2018-10-12T04:19:05.423Z,14.07
2018-10-12T04:21:34.416Z,15.10
2018-10-12T04:24:03.500Z,14.17
2018-10-12T04:26:32.308Z,15.10
2018-10-12T04:29:01.411Z,14.80
2018-10-12T04:31:30.684Z,14.87
2018-10-12T04:33:59.887Z,14.23
2018-10-12T04:36:29.032Z,13.87
2018-10-12T04:39:09.243Z,15.23
2018-10-12T04:41:38.451Z,14.30
2018-10-12T04:44:07.635Z,15.00
2018-10-12T04:46:39.416Z,15.43
2018-10-12T04:49:09.751Z,15.00
2018-10-12T04:51:46.675Z,14.17
2018-10-12T04:54:16.159Z,14.90
2018-10-12T04:56:45.751Z,14.40
2018-10-12T04:59:14.859Z,14.33
2018-10-12T05:01:44.093Z,15.77
2018-10-12T05:04:13.285Z,15.10
2018-10-12T05:06:42.395Z,13.80
2018-10-12T05:09:12.457Z,16.37
2018-10-12T05:11:41.808Z,14.10
2018-10-12T05:14:11.307Z,14.57
2018-10-12T05:16:40.492Z,14.33
2018-10-12T05:19:09.758Z,15.40
2018-10-12T05:21:38.860Z,13.93
2018-10-12T05:24:07.972Z,15.53
2018-10-12T05:26:36.984Z,14.00
2018-10-12T05:29:06.167Z,13.90
2018-10-12T05:31:35.310Z,13.83
2018-10-12T05:34:04.435Z,14.57
2018-10-12T05:36:33.464Z,13.83
2018-10-12T05:39:02.607Z,14.37
2018-10-12T05:41:31.748Z,14.43
2018-10-12T05:44:00.876Z,14.17
2018-10-12T05:46:30.039Z,14.90
2018-10-12T05:49:10.012Z,13.70
2018-10-12T05:51:39.578Z,14.67
2018-10-12T05:54:08.918Z,13.83
2018-10-12T05:56:38.815Z,14.33
2018-10-12T05:59:08.623Z,14.60
2018-10-12T06:01:37.459Z,14.20
2018-10-12T06:04:06.611Z,14.10
2018-10-12T06:06:35.688Z,14.43
2018-10-12T06:09:06.328Z,13.33
2018-10-12T06:11:35.334Z,13.43
2018-10-12T06:14:04.611Z,13.93
2018-10-12T06:16:34.503Z,13.13
2018-10-12T06:19:03.839Z,13.23
2018-10-12T06:21:33.001Z,14.20
2018-10-12T06:24:01.963Z,14.77
2018-10-12T06:26:31.343Z,13.80
2018-10-12T06:29:00.155Z,13.03
2018-10-12T06:31:29.311Z,12.40
2018-10-12T06:33:58.407Z,13.40
2018-10-12T06:36:27.495Z,14.00
2018-10-12T06:38:56.671Z,13.90
2018-10-12T06:41:25.872Z,11.67
2018-10-12T06:43:54.885Z,13.60
2018-10-12T06:46:23.736Z,12.80
2018-10-12T06:48:52.532Z,13.93
2018-10-12T06:51:21.337Z,13.17
2018-10-12T06:53:50.155Z,12.93
2018-10-12T06:56:19.448Z,14.07
2018-10-12T06:58:48.260Z,13.73
2018-10-12T07:01:17.063Z,12.93
2018-10-12T07:03:45.972Z,12.97
2018-10-12T07:06:14.792Z,14.10
2018-10-12T07:08:43.935Z,13.10
2018-10-12T07:11:13.072Z,13.17
2018-10-12T07:13:42.232Z,13.50
2018-10-12T07:16:11.487Z,13.80
2018-10-12T07:18:40.567Z,13.13
2018-10-12T07:21:09.863Z,13.67
2018-10-12T07:23:38.879Z,12.73
2018-10-12T07:26:08.033Z,12.67
2018-10-12T07:28:37.144Z,13.23
2018-10-12T07:31:06.911Z,13.13
2018-10-12T07:33:36.267Z,13.13
2018-10-12T07:36:05.348Z,12.87
2018-10-12T07:38:34.500Z,13.37
2018-10-12T07:41:03.642Z,12.43
2018-10-12T07:43:32.749Z,13.70
2018-10-12T07:46:01.968Z,13.07
2018-10-12T07:48:31.135Z,13.50
2018-10-12T07:51:00.128Z,13.20
2018-10-12T07:53:29.115Z,13.17
2018-10-12T07:55:58.119Z,13.43
2018-10-12T07:58:27.278Z,13.73
2018-10-12T08:00:56.399Z,13.37
2018-10-12T08:03:25.508Z,13.90
2018-10-12T08:05:54.603Z,13.30
2018-10-12T08:08:23.582Z,13.83
2018-10-12T08:10:52.695Z,12.90
2018-10-12T08:13:21.772Z,13.40
2018-10-12T08:15:53.404Z,13.83
2018-10-12T08:18:22.720Z,13.90
2018-10-12T08:20:52.024Z,14.43
2018-10-12T08:23:21.228Z,13.93
2018-10-12T08:25:50.667Z,13.67
2018-10-12T08:28:20.287Z,13.50
2018-10-12T08:30:49.640Z,13.17
2018-10-12T08:33:18.935Z,13.93
2018-10-12T08:35:48.035Z,14.60
2018-10-12T08:38:17.117Z,13.47
2018-10-12T08:40:46.333Z,12.97
2018-10-12T08:43:15.404Z,13.83
2018-10-12T08:45:44.415Z,14.00
2018-10-12T08:48:13.508Z,14.43
2018-10-12T08:50:42.592Z,13.60
2018-10-12T08:53:11.809Z,13.83
2018-10-12T08:55:41.086Z,13.97
2018-10-12T08:58:10.296Z,13.60
2018-10-12T09:00:39.387Z,14.30
2018-10-12T09:03:08.694Z,14.27
2018-10-12T09:05:37.698Z,13.50
2018-10-12T09:08:06.763Z,14.33
2018-10-12T09:10:35.867Z,13.87
2018-10-12T09:13:05.059Z,13.43
2018-10-12T09:15:34.202Z,14.33
2018-10-12T09:18:03.328Z,14.97
2018-10-12T09:20:32.398Z,14.40
2018-10-12T09:23:01.548Z,14.87
2018-10-12T09:25:30.535Z,13.23
2018-10-12T09:27:59.735Z,13.07
2018-10-12T09:30:28.898Z,14.57
2018-10-12T09:32:58.028Z,14.03
2018-10-12T09:35:27.239Z,13.57
2018-10-12T09:37:56.416Z,14.37
2018-10-12T09:40:25.520Z,13.77
2018-10-12T09:42:54.600Z,13.13
2018-10-12T09:45:23.776Z,12.50
2018-10-12T09:47:52.792Z,14.43
2018-10-12T09:50:21.991Z,13.53
2018-10-12T09:52:50.986Z,13.43
2018-10-12T09:55:20.071Z,12.93
2018-10-12T09:57:49.154Z,12.40
2018-10-12T10:00:23.236Z,13.23
2018-10-12T10:02:57.387Z,13.37
2018-10-12T10:05:26.600Z,13.17
2018-10-12T10:07:55.960Z,14.03
2018-10-12T10:10:24.979Z,13.83
2018-10-12T10:12:54.191Z,11.97
2018-10-12T10:15:23.410Z,12.63
2018-10-12T10:17:52.577Z,12.10
2018-10-12T10:20:21.675Z,13.03
2018-10-12T10:22:50.761Z,13.00
2018-10-12T10:25:19.964Z,12.73
2018-10-12T10:27:49.063Z,11.70
2018-10-12T10:30:18.199Z,12.77
2018-10-12T10:32:48.284Z,12.83
2018-10-12T10:35:17.352Z,12.17
2018-10-12T10:37:46.479Z,12.90
2018-10-12T10:40:15.639Z,13.80
2018-10-12T10:42:44.847Z,12.87
2018-10-12T10:45:14.059Z,12.63
2018-10-12T10:47:43.083Z,13.17
2018-10-12T10:50:12.149Z,12.60
2018-10-12T10:52:41.228Z,13.13
2018-10-12T10:55:10.414Z,13.57
2018-10-12T10:57:39.415Z,14.07
2018-10-12T11:00:08.719Z,13.57
2018-10-12T11:02:37.711Z,12.67
2018-10-12T11:05:07.096Z,12.00
2018-10-12T11:07:36.206Z,13.20
2018-10-12T11:10:05.335Z,13.50
2018-10-12T11:12:34.422Z,11.67
2018-10-12T11:15:03.592Z,12.90
2018-10-12T11:17:32.584Z,12.47
2018-10-12T11:20:01.582Z,12.07
2018-10-12T11:22:30.660Z,11.47
2018-10-12T11:24:59.663Z,12.37
2018-10-12T11:27:28.657Z,12.70
2018-10-12T11:29:57.745Z,12.00
2018-10-12T11:32:27.544Z,12.20
2018-10-12T11:34:56.648Z,11.85
2018-10-12T11:37:26.563Z,12.33
2018-10-12T11:39:55.555Z,13.13
2018-10-12T11:42:29.975Z,11.03
2018-10-12T11:44:59.149Z,12.65
2018-10-12T11:47:28.387Z,12.93
2018-10-12T11:49:57.576Z,11.43
2018-10-12T11:52:26.659Z,12.23
2018-10-12T11:54:55.808Z,11.85
2018-10-12T11:57:24.955Z,11.93
2018-10-12T11:59:54.040Z,13.05
2018-10-12T12:02:23.159Z,12.13
2018-10-12T12:04:51.979Z,12.05
2018-10-12T12:07:20.943Z,12.75
2018-10-12T12:09:49.704Z,12.17
2018-10-12T12:12:18.576Z,12.30
2018-10-12T12:14:47.545Z,11.83
2018-10-12T12:17:16.687Z,12.37
2018-10-12T12:19:45.680Z,12.47
2018-10-12T12:22:14.780Z,11.80
2018-10-12T12:24:44.028Z,12.70
2018-10-12T12:27:13.205Z,12.90
2018-10-12T12:29:42.423Z,11.70
2018-10-12T12:32:11.673Z,12.30
2018-10-12T12:34:41.026Z,12.17
2018-10-12T12:37:10.070Z,11.80
2018-10-12T12:39:39.144Z,13.30
2018-10-12T12:42:08.460Z,13.00
2018-10-12T12:44:38.148Z,12.40
2018-10-12T12:47:07.266Z,13.60
2018-10-12T12:49:36.344Z,12.60
2018-10-12T12:52:05.800Z,11.70
2018-10-12T12:54:34.865Z,12.00
2018-10-12T12:57:03.924Z,13.67
2018-10-12T12:59:32.931Z,12.13
2018-10-12T13:02:01.925Z,12.17
2018-10-12T13:04:31.007Z,12.17
2018-10-12T13:07:00.127Z,13.03
2018-10-12T13:09:29.305Z,11.63
2018-10-12T13:11:58.403Z,12.43
2018-10-12T13:14:27.380Z,13.23
2018-10-12T13:16:56.487Z,12.87
2018-10-12T13:19:25.584Z,12.83
2018-10-12T13:21:54.579Z,12.83
2018-10-12T13:24:23.672Z,12.07
2018-10-12T13:26:52.759Z,12.40
2018-10-12T13:29:22.792Z,12.23
2018-10-12T13:31:51.877Z,12.13
2018-10-12T13:34:21.183Z,12.67
2018-10-12T13:36:50.380Z,12.03
2018-10-12T13:39:20.167Z,12.90
2018-10-12T13:41:49.276Z,12.67
2018-10-12T13:44:18.359Z,12.97
2018-10-12T13:46:47.467Z,12.50
2018-10-12T13:49:16.667Z,13.03
2018-10-12T13:51:45.759Z,12.20
2018-10-12T13:54:14.816Z,12.77
2018-10-12T13:56:44.040Z,12.53
2018-10-12T13:59:13.151Z,13.30
2018-10-12T14:01:42.331Z,13.03
2018-10-12T14:04:11.431Z,13.27
2018-10-12T14:06:40.519Z,14.37
2018-10-12T14:09:09.731Z,13.63
2018-10-12T14:11:38.822Z,14.50
2018-10-12T14:14:07.915Z,14.93
2018-10-12T14:16:36.904Z,13.23
2018-10-12T14:19:06.197Z,14.30
2018-10-12T14:21:35.210Z,14.37
2018-10-12T14:24:04.301Z,14.57
2018-10-12T14:26:33.393Z,14.57
2018-10-12T14:29:03.113Z,14.27
2018-10-12T14:31:32.305Z,14.17
2018-10-12T14:34:01.195Z,15.07
2018-10-12T14:36:30.176Z,14.17
2018-10-12T14:38:59.276Z,14.23
2018-10-12T14:41:28.347Z,14.67
2018-10-12T14:43:58.027Z,15.87
2018-10-12T14:46:27.068Z,14.57
2018-10-12T14:48:56.163Z,15.10
2018-10-12T14:51:25.309Z,15.10
2018-10-12T14:53:54.156Z,14.97
2018-10-12T14:56:22.976Z,16.00
2018-10-12T14:58:51.804Z,14.67
2018-10-12T15:01:20.888Z,15.33
2018-10-12T15:03:49.664Z,14.73
2018-10-12T15:06:18.732Z,13.50
2018-10-12T15:08:47.453Z,15.80
2018-10-12T15:11:16.952Z,15.17
2018-10-12T15:13:45.936Z,16.47
2018-10-12T15:16:15.187Z,16.23
2018-10-12T15:18:44.202Z,14.57
2018-10-12T15:21:13.163Z,15.90
2018-10-12T15:23:41.920Z,16.13
2018-10-12T15:26:10.768Z,17.03
2018-10-12T15:28:39.928Z,16.60
2018-10-12T15:31:09.299Z,15.90
2018-10-12T15:33:38.025Z,16.00
2018-10-12T15:36:07.272Z,16.03
2018-10-12T15:38:36.531Z,16.97
2018-10-12T15:41:06.076Z,17.73
2018-10-12T15:43:34.793Z,16.20
2018-10-12T15:46:04.037Z,17.63
2018-10-12T15:48:34.548Z,16.47
2018-10-12T15:51:03.845Z,17.10
2018-10-12T15:53:33.723Z,18.03
2018-10-12T15:56:03.256Z,19.10
2018-10-12T15:58:33.545Z,18.03
2018-10-12T16:01:02.723Z,17.40
2018-10-12T16:03:32.552Z,18.03
2018-10-12T16:06:01.440Z,16.67
2018-10-12T16:08:30.176Z,17.17
2018-10-12T16:10:59.586Z,17.73
2018-10-12T16:13:29.052Z,16.53
2018-10-12T16:15:58.800Z,17.20
2018-10-12T16:18:27.967Z,16.97
2018-10-12T16:20:57.168Z,16.63
2018-10-12T16:23:26.256Z,16.97
2018-10-12T16:26:16.755Z,15.97
2018-10-12T16:28:46.055Z,16.63
2018-10-12T16:31:15.139Z,15.90
2018-10-12T16:33:44.344Z,17.60
2018-10-12T16:36:13.699Z,17.43
2018-10-12T16:38:42.924Z,16.90
2018-10-12T16:41:11.935Z,18.53
2018-10-12T16:43:41.125Z,17.20
2018-10-12T16:46:10.212Z,17.33
2018-10-12T16:48:39.238Z,18.07
2018-10-12T16:51:08.307Z,18.30
2018-10-12T16:53:38.273Z,17.63
2018-10-12T16:56:07.832Z,18.50
2018-10-12T16:58:36.920Z,17.33
2018-10-12T17:01:06.024Z,17.87
2018-10-12T17:03:35.320Z,18.87
2018-10-12T17:06:04.413Z,21.10
2018-10-12T17:08:33.509Z,19.77
2018-10-12T17:11:02.612Z,29.17
2018-10-12T17:13:31.595Z,24.33
2018-10-12T17:16:00.587Z,20.07
2018-10-12T17:18:29.743Z,22.60
2018-10-12T17:20:59.195Z,20.10
2018-10-12T17:23:28.018Z,22.03
2018-10-12T17:25:56.867Z,22.57
2018-10-12T17:28:26.584Z,18.40
2018-10-12T17:30:56.280Z,21.30
2018-10-12T17:33:25.382Z,20.93
2018-10-12T17:35:54.563Z,19.87
2018-10-12T17:38:23.683Z,20.73
2018-10-12T17:40:52.577Z,19.47
2018-10-12T17:43:21.462Z,19.43
2018-10-12T17:45:50.529Z,19.50
2018-10-12T17:48:19.572Z,19.87
2018-10-12T17:50:49.021Z,19.47
2018-10-12T17:53:17.860Z,20.63
2018-10-12T17:55:47.850Z,21.20
2018-10-12T17:58:17.828Z,19.80
2018-10-12T18:00:49.426Z,20.13
2018-10-12T18:03:20.129Z,20.23
2018-10-12T18:05:50.261Z,21.33
2018-10-12T18:08:20.277Z,21.53
2018-10-12T18:10:49.989Z,20.07
2018-10-12T18:13:19.632Z,19.83
2018-10-12T18:15:48.844Z,19.07
2018-10-12T18:18:18.541Z,18.73
2018-10-12T18:20:47.682Z,18.40
2018-10-12T18:23:17.002Z,18.77
2018-10-12T18:25:46.277Z,21.90
2018-10-12T18:28:15.276Z,19.57
2018-10-12T18:30:44.276Z,20.40
2018-10-12T18:33:13.264Z,19.93
2018-10-12T18:35:42.372Z,18.70
2018-10-12T18:38:11.648Z,20.50
2018-10-12T18:40:40.661Z,20.20
2018-10-12T18:43:09.877Z,20.70
2018-10-12T18:45:39.120Z,20.43
2018-10-12T18:48:09.333Z,20.53
2018-10-12T18:50:38.508Z,19.70
2018-10-12T18:53:07.883Z,19.40
2018-10-12T18:55:37.101Z,18.70
2018-10-12T18:58:06.267Z,19.47
2018-10-12T19:00:35.564Z,18.73
2018-10-12T19:03:04.648Z,18.53
2018-10-12T19:05:33.661Z,18.73
2018-10-12T19:08:02.859Z,21.77
2018-10-12T19:10:32.034Z,19.67
2018-10-12T19:13:01.322Z,21.87
2018-10-12T19:15:30.419Z,19.80
2018-10-12T19:17:59.572Z,19.50
2018-10-12T19:20:28.620Z,20.53
2018-10-12T19:22:57.712Z,21.10
2018-10-12T19:25:26.796Z,21.10
2018-10-12T19:27:55.912Z,20.83
2018-10-12T19:30:25.033Z,20.60
2018-10-12T19:32:54.122Z,19.30
2018-10-12T19:35:23.537Z,21.63
2018-10-12T19:37:52.697Z,19.77
2018-10-12T19:40:21.680Z,19.33
2018-10-12T19:42:50.984Z,19.90
2018-10-12T19:45:20.069Z,20.33
2018-10-12T19:47:49.159Z,19.77
2018-10-12T19:50:18.376Z,19.40
2018-10-12T19:52:47.622Z,20.10
2018-10-12T19:55:16.756Z,20.57
2018-10-12T19:57:45.969Z,20.73
2018-10-12T20:00:15.276Z,20.60
2018-10-12T20:02:44.578Z,20.07
2018-10-12T20:05:13.924Z,20.67
2018-10-12T20:07:44.039Z,19.53
2018-10-12T20:10:13.177Z,20.30
2018-10-12T20:12:42.271Z,19.00
2018-10-12T20:15:11.364Z,19.77
2018-10-12T20:17:40.504Z,19.57
2018-10-12T20:20:09.764Z,21.53
2018-10-12T20:22:38.964Z,19.77
2018-10-12T20:25:08.145Z,19.80
2018-10-12T20:27:37.360Z,20.03
2018-10-12T20:30:06.453Z,19.93
2018-10-12T20:32:35.634Z,19.93
2018-10-12T20:35:04.531Z,20.40
2018-10-12T20:37:33.804Z,19.30
2018-10-12T20:40:03.128Z,19.20
2018-10-12T20:42:32.736Z,20.60
2018-10-12T20:45:01.916Z,20.50
2018-10-12T20:47:30.761Z,19.17
2018-10-12T20:49:59.580Z,20.10
2018-10-12T20:52:28.420Z,20.97
2018-10-12T20:54:57.584Z,19.43
2018-10-12T20:57:26.789Z,19.60
2018-10-12T20:59:55.891Z,20.07
2018-10-12T21:02:25.104Z,20.03
2018-10-12T21:04:54.467Z,19.47
2018-10-12T21:07:23.559Z,20.17
2018-10-12T21:09:52.669Z,20.10
2018-10-12T21:12:21.764Z,19.53
2018-10-12T21:14:50.843Z,19.30
2018-10-12T21:17:20.052Z,19.30
2018-10-12T21:19:49.147Z,19.20
2018-10-12T21:22:18.249Z,20.13
2018-10-12T21:24:47.044Z,19.77
2018-10-12T21:27:16.232Z,20.03
2018-10-12T21:29:45.323Z,19.63
2018-10-12T21:32:14.522Z,20.10
2018-10-12T21:34:43.616Z,20.43
2018-10-12T21:37:12.701Z,20.00
2018-10-12T21:39:41.800Z,21.00
2018-10-12T21:42:10.895Z,19.90
2018-10-12T21:44:40.080Z,19.70
2018-10-12T21:47:09.387Z,19.60
2018-10-12T21:49:38.487Z,19.27
2018-10-12T21:52:07.584Z,19.60
2018-10-12T21:54:36.787Z,20.10
2018-10-12T21:57:05.871Z,19.77
2018-10-12T21:59:35.064Z,19.20
2018-10-12T22:02:04.152Z,20.33
2018-10-12T22:04:33.360Z,20.03
2018-10-12T22:07:02.456Z,18.97
2018-10-12T22:09:31.443Z,20.53
2018-10-12T22:12:00.536Z,20.47
2018-10-12T22:14:29.676Z,19.47
2018-10-12T22:16:58.739Z,19.60
2018-10-12T22:19:27.880Z,19.50
2018-10-12T22:21:57.031Z,19.73
2018-10-12T22:24:26.116Z,18.30
2018-10-12T22:26:55.312Z,21.23
2018-10-12T22:29:24.115Z,19.43
2018-10-12T22:31:52.918Z,19.83
2018-10-12T22:34:22.088Z,19.73
2018-10-12T22:36:51.185Z,20.67
2018-10-12T22:39:20.268Z,19.73
2018-10-12T22:41:49.095Z,19.47
2018-10-12T22:44:17.919Z,19.57
2018-10-12T22:46:46.731Z,19.40
2018-10-12T22:49:15.555Z,20.07
2018-10-12T22:51:44.399Z,19.90
2018-10-12T22:54:13.232Z,20.50
2018-10-12T22:56:42.040Z,22.77
2018-10-12T22:59:10.844Z,21.03
2018-10-12T23:01:39.870Z,19.80
2018-10-12T23:04:08.679Z,20.70
2018-10-12T23:06:37.860Z,20.77
2018-10-12T23:09:09.437Z,22.57
2018-10-12T23:11:38.529Z,20.83
2018-10-12T23:14:08.355Z,20.33
2018-10-12T23:16:37.604Z,19.90
2018-10-12T23:19:07.207Z,21.20
2018-10-12T23:21:36.903Z,19.70
2018-10-12T23:24:06.540Z,20.90
2018-10-12T23:26:35.735Z,21.27
2018-10-12T23:29:04.911Z,22.13
2018-10-12T23:31:34.019Z,20.70
2018-10-12T23:34:06.236Z,22.37
2018-10-12T23:36:35.379Z,22.17
2018-10-12T23:39:05.712Z,22.87
2018-10-12T23:41:34.955Z,23.47
2018-10-12T23:44:04.195Z,24.50
2018-10-12T23:46:33.387Z,22.17
2018-10-12T23:49:02.503Z,23.93
2018-10-12T23:51:31.678Z,22.20
2018-10-12T23:54:01.267Z,20.97
2018-10-12T23:56:31.212Z,21.07
2018-10-12T23:59:00.299Z,22.13
